Time;durP1;ratioP1;P1;durP2;ratioP2;P2;SDS_P1;SDS_P2;PMS_P1;PMS_P2;Temp;Humidity;BMP_temperature;BMP_pressure;BME280_temperature;BME280_humidity;BME280_pressure;Samples;Min_cycle;Max_cycle;Signal;HPM_P1;HPM_P2
2023/04/08 00:01:37;;;;;;;0.00;0.00;;;;;;;10.91;60.32;101604.56;7352473;19;20014;-63
2023/04/08 00:04:03;;;;;;;0.00;0.00;;;;;;;10.90;60.79;101605.44;7352187;19;20025;-63
2023/04/08 00:06:28;;;;;;;0.00;0.00;;;;;;;10.86;60.84;101595.91;7354994;19;20019;-63
2023/04/08 00:08:53;;;;;;;0.00;0.00;;;;;;;10.81;60.48;101602.91;7355184;19;20783;-63
2023/04/08 00:11:19;;;;;;;0.00;0.00;;;;;;;10.80;60.41;101603.78;7355127;19;20010;-63
2023/04/08 00:13:44;;;;;;;0.00;0.00;;;;;;;10.78;61.01;101605.53;7352061;19;20106;-63
2023/04/08 00:16:10;;;;;;;0.08;0.08;;;;;;;10.75;60.78;101608.19;7368923;19;20026;-62
2023/04/08 00:18:37;;;;;;;0.00;0.00;;;;;;;10.73;60.77;101608.19;7367705;19;20797;-62
2023/04/08 00:21:03;;;;;;;0.00;0.00;;;;;;;10.71;60.90;101609.97;7366155;19;20002;-63
2023/04/08 00:23:28;;;;;;;0.00;0.00;;;;;;;10.70;60.59;101608.22;7351398;19;22323;-63
2023/04/08 00:25:53;;;;;;;0.00;0.00;;;;;;;10.68;60.71;101612.59;7369078;19;20031;-63
2023/04/08 00:28:20;;;;;;;0.00;0.00;;;;;;;10.65;61.16;101605.66;7364795;19;20014;-63
2023/04/08 00:30:45;;;;;;;0.08;0.08;;;;;;;10.64;60.90;101609.16;7367277;19;20074;-62
2023/04/08 00:33:11;;;;;;;0.00;0.00;;;;;;;10.63;61.00;101603.91;7364330;19;20002;-63
2023/04/08 00:35:36;;;;;;;0.03;0.03;;;;;;;10.60;61.15;101597.00;7366737;19;20048;-63
2023/04/08 00:38:03;;;;;;;0.00;0.00;;;;;;;10.61;61.41;101603.94;7365146;19;20665;-63
2023/04/08 00:40:28;;;;;;;0.00;0.00;;;;;;;10.59;61.60;101605.72;7366135;19;20010;-63
2023/04/08 00:42:56;;;;;;;0.00;0.00;;;;;;;10.48;61.29;101581.41;7365292;19;20037;-63
2023/04/08 00:45:22;;;;;;;0.00;0.00;;;;;;;10.54;61.21;101602.28;7361384;19;20643;-62
2023/04/08 00:47:51;;;;;;;0.00;0.00;;;;;;;10.55;61.33;101606.63;7366593;19;20010;-63
2023/04/08 00:50:17;;;;;;;0.00;0.00;;;;;;;10.54;60.89;101612.72;7356196;19;20589;-63
2023/04/08 00:52:42;;;;;;;0.00;0.00;;;;;;;10.52;61.74;101609.22;7365696;19;20021;-63
2023/04/08 00:55:08;;;;;;;0.05;0.05;;;;;;;10.51;62.00;101607.50;7365921;19;20006;-63
2023/04/08 00:57:34;;;;;;;0.00;0.00;;;;;;;10.49;61.63;101604.06;7366365;19;20021;-63
2023/04/08 01:00:00;;;;;;;0.00;0.00;;;;;;;10.48;61.82;101615.34;7360488;19;20015;-62
2023/04/08 01:02:29;;;;;;;0.10;0.10;;;;;;;10.47;61.94;101597.97;7365647;19;20052;-63
2023/04/08 01:05:08;;;;;;;0.00;0.00;;;;;;;10.44;61.76;101590.16;7360905;19;20014;-63
2023/04/08 01:07:37;;;;;;;0.00;0.00;;;;;;;10.48;62.09;101598.81;7365495;19;20435;-62
2023/04/08 01:10:20;;;;;;;0.00;0.00;;;;;;;10.49;60.66;101597.94;7361147;19;20022;-63
2023/04/08 01:12:52;;;;;;;0.10;0.10;;;;;;;10.44;61.47;101595.41;7364790;19;20015;-63
2023/04/08 01:15:19;;;;;;;0.10;0.10;;;;;;;10.47;62.03;101592.75;7366223;19;20125;-63
2023/04/08 01:17:45;;;;;;;0.00;0.00;;;;;;;10.47;61.94;101597.97;7362588;19;20017;-63
2023/04/08 01:20:12;;;;;;;0.00;0.00;;;;;;;10.43;62.09;101579.72;7360476;19;20006;-63
2023/04/08 01:22:59;;;;;;;0.00;0.00;;;;;;;10.49;60.96;101585.78;7363990;19;20054;-62
2023/04/08 01:25:35;;;;;;;0.00;0.00;;;;;;;10.49;60.95;101593.63;7360503;19;20017;-63
2023/04/08 01:28:15;;;;;;;0.10;0.10;;;;;;;10.50;60.94;101595.34;7345789;19;20018;-63
2023/04/08 01:30:42;;;;;;;0.10;0.10;;;;;;;10.50;62.07;101591.88;7349837;19;20013;-64
2023/04/08 01:33:11;;;;;;;0.00;0.00;;;;;;;10.51;61.61;101594.44;7357054;19;20026;-62
2023/04/08 01:35:37;;;;;;;0.00;0.00;;;;;;;10.51;62.17;101596.19;7361324;19;20031;-62
2023/04/08 01:38:05;;;;;;;0.00;0.00;;;;;;;10.52;62.08;101604.00;7360578;19;20673;-63
2023/04/08 01:40:34;;;;;;;0.05;0.05;;;;;;;10.53;61.72;101600.50;7355620;19;20022;-63
2023/04/08 01:43:00;;;;;;;0.00;0.00;;;;;;;10.55;61.94;101598.78;7361388;19;20069;-63
2023/04/08 01:45:27;;;;;;;0.00;0.00;;;;;;;10.43;61.47;101567.53;7358786;19;20021;-63
2023/04/08 01:47:55;;;;;;;0.05;0.05;;;;;;;10.53;61.72;101587.47;7360433;19;20054;-62
2023/04/08 01:50:21;;;;;;;0.00;0.00;;;;;;;10.58;62.17;101590.91;7360717;19;20007;-62
2023/04/08 01:52:48;;;;;;;0.00;0.00;;;;;;;10.58;61.96;101590.03;7357019;19;20014;-63
2023/04/08 01:55:14;;;;;;;0.00;0.00;;;;;;;10.60;61.61;101596.13;7360894;19;21020;-63
2023/04/08 01:57:44;;;;;;;0.00;0.00;;;;;;;10.60;61.89;101591.78;7347200;19;20021;-63
2023/04/08 02:00:12;;;;;;;0.00;0.00;;;;;;;10.61;62.03;101587.41;7353684;19;20362;-63
2023/04/08 02:02:40;;;;;;;0.00;0.00;;;;;;;10.47;62.10;101563.16;7356491;19;20558;-63
2023/04/08 02:05:06;;;;;;;0.00;0.00;;;;;;;10.53;62.13;101570.94;7352763;19;20010;-63
2023/04/08 02:07:31;;;;;;;0.00;0.00;;;;;;;10.53;62.11;101573.53;7360065;19;20900;-63
2023/04/08 02:09:57;;;;;;;0.05;0.05;;;;;;;10.59;62.22;101590.03;7345544;19;20014;-64
2023/04/08 02:12:24;;;;;;;0.00;0.00;;;;;;;10.59;61.99;101590.03;7350873;19;20803;-62
2023/04/08 02:14:49;;;;;;;0.00;0.00;;;;;;;10.58;61.91;101583.06;7353153;19;20014;-63
2023/04/08 02:17:28;;;;;;;0.00;0.00;;;;;;;10.59;60.84;101597.88;7357470;19;20010;-63
2023/04/08 02:20:12;;;;;;;0.00;0.00;;;;;;;10.57;61.06;101597.00;7356400;19;20092;-62
2023/04/08 02:22:45;;;;;;;0.10;0.10;;;;;;;10.55;61.73;101598.78;7353171;19;20023;-63
2023/04/08 02:25:14;;;;;;;0.00;0.00;;;;;;;10.53;61.72;101599.66;7353273;19;20471;-63
2023/04/08 02:27:42;;;;;;;0.00;0.00;;;;;;;10.52;62.13;101603.16;7354688;19;21341;-62
2023/04/08 02:30:09;;;;;;;0.00;0.00;;;;;;;10.37;61.81;101585.84;7354880;19;20506;-63
2023/04/08 02:32:36;;;;;;;0.10;0.10;;;;;;;10.47;61.74;101599.72;7355808;19;20013;-63
2023/04/08 02:35:04;;;;;;;0.00;0.00;;;;;;;10.45;61.76;101602.34;7350604;19;20050;-63
2023/04/08 02:37:30;;;;;;;0.00;0.00;;;;;;;10.32;61.80;101574.59;7356653;19;20347;-63
2023/04/08 02:39:56;;;;;;;0.00;0.00;;;;;;;10.41;61.85;101598.00;7352467;19;20022;-61
2023/04/08 02:42:22;;;;;;;0.00;0.00;;;;;;;10.39;61.37;101591.91;7352815;19;20633;-63
2023/04/08 02:44:47;;;;;;;0.00;0.00;;;;;;;10.37;61.32;101588.47;7350800;19;20563;-62
2023/04/08 02:47:13;;;;;;;0.00;0.00;;;;;;;10.35;61.47;101592.84;7355014;19;20034;-63
2023/04/08 02:49:38;;;;;;;0.00;0.00;;;;;;;10.33;61.51;101591.97;7356024;19;20090;-62
2023/04/08 02:52:04;;;;;;;0.10;0.10;;;;;;;10.31;61.69;101588.53;7354707;19;20481;-63
2023/04/08 02:54:29;;;;;;;0.00;0.00;;;;;;;10.28;61.55;101585.91;7356401;19;20033;-63
2023/04/08 02:56:55;;;;;;;0.00;0.00;;;;;;;10.13;61.44;101556.41;7348995;19;20735;-63
2023/04/08 02:59:20;;;;;;;0.03;0.03;;;;;;;10.19;61.23;101568.56;7356043;19;20089;-63
2023/04/08 03:01:46;;;;;;;0.00;0.00;;;;;;;10.24;61.54;101579.88;7347302;19;20437;-62
2023/04/08 03:04:11;;;;;;;0.00;0.00;;;;;;;10.17;61.53;101579.88;7331630;19;20086;-62
2023/04/08 03:06:36;;;;;;;0.00;0.00;;;;;;;10.23;61.71;101585.06;7356186;19;20018;-63
2023/04/08 03:09:02;;;;;;;0.10;0.10;;;;;;;10.17;61.60;101570.31;7355205;19;20010;-63
2023/04/08 03:11:27;;;;;;;0.03;0.03;;;;;;;10.18;61.81;101573.78;7354609;19;20018;-62
2023/04/08 03:13:53;;;;;;;0.00;0.00;;;;;;;10.22;61.98;101578.09;7349599;19;20048;-63
2023/04/08 03:16:18;;;;;;;0.00;0.00;;;;;;;10.22;61.81;101583.31;7356795;19;20446;-62
2023/04/08 03:18:44;;;;;;;0.00;0.00;;;;;;;10.20;61.46;101575.50;7335112;19;20011;-63
2023/04/08 03:21:09;;;;;;;0.00;0.00;;;;;;;10.23;61.62;101579.84;7355044;19;20014;-63
2023/04/08 03:23:35;;;;;;;0.00;0.00;;;;;;;10.17;61.67;101569.44;7355630;19;20011;-62
2023/04/08 03:26:00;;;;;;;0.00;0.00;;;;;;;10.17;62.15;101569.44;7353614;19;20010;-62
2023/04/08 03:28:25;;;;;;;0.00;0.00;;;;;;;10.23;62.36;101574.63;7352265;19;20011;-62
2023/04/08 03:30:51;;;;;;;0.10;0.10;;;;;;;10.23;61.91;101572.00;7354779;19;20733;-63
2023/04/08 03:33:16;;;;;;;0.00;0.00;;;;;;;10.11;62.37;101560.78;7355359;19;20014;-62
2023/04/08 03:35:42;;;;;;;0.00;0.00;;;;;;;10.24;62.16;101577.25;7350632;19;20003;-63
2023/04/08 03:38:07;;;;;;;0.00;0.00;;;;;;;10.12;62.06;101546.84;7355854;19;20561;-63
2023/04/08 03:40:33;;;;;;;0.00;0.00;;;;;;;10.24;62.24;101569.44;7355393;19;20010;-62
2023/04/08 03:42:58;;;;;;;0.00;0.00;;;;;;;10.23;62.52;101570.25;7357445;19;20009;-63
2023/04/08 03:45:23;;;;;;;0.00;0.00;;;;;;;10.23;61.98;101580.69;7353120;19;20455;-63
2023/04/08 03:47:49;;;;;;;0.10;0.10;;;;;;;10.22;62.10;101578.97;7355023;19;20477;-63
2023/04/08 03:50:14;;;;;;;0.00;0.00;;;;;;;10.21;61.86;101572.03;7353433;19;20018;-63
2023/04/08 03:52:40;;;;;;;0.10;0.10;;;;;;;10.04;62.05;101543.44;7355697;19;20007;-63
2023/04/08 03:55:06;;;;;;;0.00;0.00;;;;;;;10.20;62.30;101578.13;7356011;19;20066;-63
2023/04/08 03:57:31;;;;;;;0.00;0.00;;;;;;;10.18;62.70;101571.16;7351051;19;20025;-63
2023/04/08 03:59:56;;;;;;;0.00;0.00;;;;;;;10.17;62.38;101567.69;7355872;19;20022;-63
2023/04/08 04:02:22;;;;;;;0.00;0.00;;;;;;;10.12;61.97;101559.91;7352782;19;20018;-63
2023/04/08 04:04:47;;;;;;;0.00;0.00;;;;;;;10.17;62.22;101575.53;7355522;19;20018;-63
2023/04/08 04:07:13;;;;;;;0.10;0.10;;;;;;;10.17;62.40;101569.44;7353185;19;20022;-64
2023/04/08 04:09:38;;;;;;;0.00;0.00;;;;;;;10.15;62.53;101566.84;7352686;19;20014;-62
2023/04/08 04:12:04;;;;;;;0.00;0.00;;;;;;;10.14;62.56;101570.34;7353510;19;20010;-62
2023/04/08 04:14:29;;;;;;;0.00;0.00;;;;;;;10.12;62.45;101564.25;7354437;19;21122;-63
2023/04/08 04:16:54;;;;;;;0.00;0.00;;;;;;;10.12;62.23;101567.72;7352166;19;20019;-61
2023/04/08 04:19:20;;;;;;;0.00;0.00;;;;;;;10.11;62.34;101576.44;7352532;19;20060;-63
2023/04/08 04:21:45;;;;;;;0.00;0.00;;;;;;;10.09;62.26;101572.97;7351920;19;20026;-63
2023/04/08 04:24:12;;;;;;;0.00;0.00;;;;;;;10.08;61.94;101576.44;7355824;19;20017;-63
2023/04/08 04:26:40;;;;;;;0.00;0.00;;;;;;;10.05;62.45;101566.03;7350195;19;20057;-63
2023/04/08 04:29:06;;;;;;;0.00;0.00;;;;;;;10.02;62.58;101563.44;7356395;19;20014;-62
2023/04/08 04:31:31;;;;;;;0.00;0.00;;;;;;;9.93;62.94;101546.97;7350475;19;20441;-63
2023/04/08 04:33:57;;;;;;;0.00;0.00;;;;;;;10.01;62.67;101572.16;7354472;19;20011;-63
2023/04/08 04:36:22;;;;;;;0.10;0.10;;;;;;;9.93;62.40;101560.88;7351879;19;20037;-63
2023/04/08 04:38:49;;;;;;;0.10;0.10;;;;;;;9.98;62.95;101574.78;7352294;19;20007;-63
2023/04/08 04:41:15;;;;;;;0.00;0.00;;;;;;;9.97;62.78;101573.03;7352927;19;20473;-63
2023/04/08 04:43:40;;;;;;;0.00;0.00;;;;;;;9.88;62.63;101562.66;7355899;19;20018;-63
2023/04/08 04:46:07;;;;;;;0.10;0.10;;;;;;;9.87;62.77;101571.38;7349311;19;20439;-63
2023/04/08 04:48:36;;;;;;;0.00;0.00;;;;;;;9.87;62.48;101571.38;7352479;19;20026;-62
2023/04/08 04:51:02;;;;;;;0.10;0.10;;;;;;;9.79;62.85;101560.13;7351872;19;20837;-63
2023/04/08 04:53:28;;;;;;;0.00;0.00;;;;;;;9.66;63.11;101548.03;7353722;19;20009;-63
2023/04/08 04:55:54;;;;;;;0.00;0.00;;;;;;;9.77;62.93;101573.16;7354539;19;20003;-63
2023/04/08 04:58:20;;;;;;;0.00;0.00;;;;;;;9.75;63.05;101577.53;7349699;19;20013;-63
2023/04/08 05:00:45;;;;;;;0.00;0.00;;;;;;;9.70;62.69;101573.22;7351855;19;21119;-63
2023/04/08 05:03:11;;;;;;;0.00;0.00;;;;;;;9.69;63.01;101579.31;7358763;19;20035;-62
2023/04/08 05:05:37;;;;;;;0.00;0.00;;;;;;;9.55;63.46;101563.72;7356213;19;20010;-63
2023/04/08 05:08:02;;;;;;;0.00;0.00;;;;;;;9.62;62.81;101576.72;7357448;19;20006;-62
2023/04/08 05:10:28;;;;;;;0.10;0.10;;;;;;;9.59;63.27;101575.88;7358723;19;20010;-63
2023/04/08 05:12:53;;;;;;;0.00;0.00;;;;;;;9.58;63.23;101584.59;7357653;19;20775;-63
2023/04/08 05:15:18;;;;;;;0.10;0.10;;;;;;;9.53;62.91;101582.00;7358326;19;20024;-63
2023/04/08 05:17:44;;;;;;;0.08;0.08;;;;;;;9.51;63.43;101583.72;7355874;19;20015;-63
2023/04/08 05:20:10;;;;;;;0.00;0.00;;;;;;;9.48;63.35;101591.56;7358181;19;20466;-63
2023/04/08 05:22:35;;;;;;;0.10;0.10;;;;;;;9.46;63.19;101580.25;7359942;19;20033;-63
2023/04/08 05:25:01;;;;;;;0.00;0.00;;;;;;;9.45;63.28;101582.88;7358432;19;20006;-63
2023/04/08 05:27:26;;;;;;;0.00;0.00;;;;;;;9.42;63.32;101586.34;7356112;19;20064;-62
2023/04/08 05:29:52;;;;;;;0.00;0.00;;;;;;;9.40;63.12;101585.50;7359876;19;20697;-63
2023/04/08 05:32:17;;;;;;;0.00;0.00;;;;;;;9.39;63.21;101582.91;7356374;19;21226;-61
2023/04/08 05:34:43;;;;;;;0.00;0.00;;;;;;;9.37;62.83;101582.91;7359258;19;20018;-63
2023/04/08 05:37:09;;;;;;;0.08;0.08;;;;;;;9.35;63.30;101588.13;7359969;19;20481;-63
2023/04/08 05:39:35;;;;;;;0.00;0.00;;;;;;;9.34;63.13;101591.63;7359119;19;20021;-63
2023/04/08 05:42:00;;;;;;;0.00;0.00;;;;;;;9.33;63.19;101589.88;7359573;19;20466;-62
2023/04/08 05:44:25;;;;;;;0.00;0.00;;;;;;;9.31;63.07;101596.81;7358589;19;20514;-63
2023/04/08 05:46:51;;;;;;;0.00;0.00;;;;;;;9.20;63.50;101576.88;7358081;19;20028;-62
2023/04/08 05:49:17;;;;;;;0.00;0.00;;;;;;;9.29;63.05;101597.72;7356703;19;20018;-62
2023/04/08 05:51:43;;;;;;;0.10;0.10;;;;;;;9.29;63.64;101597.72;7357748;19;20033;-62
2023/04/08 05:54:08;;;;;;;0.00;0.00;;;;;;;9.28;63.71;101598.59;7357457;19;20014;-63
2023/04/08 05:56:34;;;;;;;0.00;0.00;;;;;;;9.25;63.70;101598.59;7356350;19;20543;-62
2023/04/08 05:59:00;;;;;;;0.00;0.00;;;;;;;9.27;63.57;101607.25;7345643;19;20786;-63
2023/04/08 06:01:25;;;;;;;0.00;0.00;;;;;;;9.27;63.92;101607.25;7356887;19;20322;-63
2023/04/08 06:03:57;;;;;;;0.10;0.10;;;;;;;9.28;63.89;101609.03;7353082;19;20018;-63
2023/04/08 06:06:24;;;;;;;0.00;0.00;;;;;;;9.28;64.10;101602.06;7354548;19;20010;-63
2023/04/08 06:08:49;;;;;;;0.10;0.10;;;;;;;9.29;64.19;101605.53;7352087;19;20596;-61
2023/04/08 06:11:15;;;;;;;0.05;0.05;;;;;;;9.31;64.42;101603.78;7355205;19;20014;-63
2023/04/08 06:13:41;;;;;;;0.08;0.08;;;;;;;9.33;64.23;101602.91;7353272;19;20030;-60
2023/04/08 06:16:14;;;;;;;0.00;0.00;;;;;;;9.38;64.19;101607.22;7357865;19;20014;-63
2023/04/08 06:18:40;;;;;;;0.00;0.00;;;;;;;9.39;64.62;101611.59;7355489;19;20081;-63
2023/04/08 06:21:05;;;;;;;0.00;0.00;;;;;;;9.40;64.56;101619.41;7356908;19;20094;-63
2023/04/08 06:23:31;;;;;;;0.00;0.00;;;;;;;9.44;64.68;101628.09;7347138;19;20044;-63
2023/04/08 06:25:57;;;;;;;0.00;0.00;;;;;;;9.47;64.56;101615.03;7356361;19;20644;-62
2023/04/08 06:28:23;;;;;;;0.00;0.00;;;;;;;9.48;64.43;101615.03;7353848;19;20038;-63
2023/04/08 06:30:48;;;;;;;0.05;0.05;;;;;;;9.52;64.53;101624.56;7357857;19;20015;-63
2023/04/08 06:33:14;;;;;;;0.10;0.10;;;;;;;9.57;64.44;101614.97;7352018;19;20010;-63
2023/04/08 06:35:40;;;;;;;0.00;0.00;;;;;;;9.61;64.70;101621.06;7355035;19;20021;-63
2023/04/08 06:38:05;;;;;;;0.08;0.08;;;;;;;9.64;64.69;101614.97;7354641;19;20039;-64
2023/04/08 06:40:31;;;;;;;0.00;0.00;;;;;;;9.68;64.54;101616.69;7356265;19;20730;-62
2023/04/08 06:42:56;;;;;;;0.10;0.10;;;;;;;9.72;64.48;101618.41;7351219;19;20512;-63
2023/04/08 06:45:22;;;;;;;0.10;0.10;;;;;;;9.75;64.92;101618.41;7349686;19;20010;-62
2023/04/08 06:47:48;;;;;;;0.00;0.00;;;;;;;9.78;64.73;101620.97;7351015;19;20042;-63
2023/04/08 06:50:13;;;;;;;0.00;0.00;;;;;;;9.79;64.46;101626.19;7353789;19;20073;-63
2023/04/08 06:52:38;;;;;;;0.00;0.00;;;;;;;9.86;64.20;101637.47;7354960;19;20011;-63
2023/04/08 06:55:04;;;;;;;0.00;0.00;;;;;;;9.89;64.70;101629.63;7352661;19;20367;-62
2023/04/08 06:57:30;;;;;;;0.00;0.00;;;;;;;9.92;64.70;101633.97;7347287;19;20039;-63
2023/04/08 06:59:56;;;;;;;0.00;0.00;;;;;;;9.94;65.09;101633.09;7356468;19;20753;-63
2023/04/08 07:02:21;;;;;;;0.00;0.00;;;;;;;9.99;64.22;101648.72;7354964;19;20018;-63
2023/04/08 07:04:47;;;;;;;0.00;0.00;;;;;;;9.87;65.33;101618.31;7351893;19;20042;-63
2023/04/08 07:07:12;;;;;;;0.00;0.00;;;;;;;10.00;65.19;101635.66;7356280;19;20021;-63
2023/04/08 07:09:38;;;;;;;0.00;0.00;;;;;;;10.05;64.89;101641.72;7356050;19;20405;-64
2023/04/08 07:12:04;;;;;;;0.00;0.00;;;;;;;10.08;65.31;101641.69;7347317;19;20014;-63
2023/04/08 07:14:29;;;;;;;0.00;0.00;;;;;;;10.06;64.69;101640.84;7353646;19;20027;-63
2023/04/08 07:16:55;;;;;;;0.00;0.00;;;;;;;10.13;64.64;101650.34;7354495;19;20014;-63
2023/04/08 07:19:23;;;;;;;0.08;0.08;;;;;;;10.14;64.41;101644.28;7351056;19;20022;-63
2023/04/08 07:21:48;;;;;;;0.00;0.00;;;;;;;10.21;64.02;101654.69;7353594;19;20090;-63
2023/04/08 07:24:13;;;;;;;0.00;0.00;;;;;;;10.23;64.16;101647.69;7352032;19;20010;-63
2023/04/08 07:26:39;;;;;;;0.03;0.03;;;;;;;10.25;63.94;101652.09;7350484;19;20356;-63
2023/04/08 07:29:04;;;;;;;0.10;0.10;;;;;;;10.28;65.07;101651.19;7355005;19;20007;-63
2023/04/08 07:31:30;;;;;;;0.05;0.05;;;;;;;10.30;64.91;101650.31;7350395;19;20077;-63
2023/04/08 07:33:55;;;;;;;0.00;0.00;;;;;;;10.33;65.20;101649.41;7344316;19;20003;-63
2023/04/08 07:36:20;;;;;;;0.00;0.00;;;;;;;10.38;64.71;101645.03;7350233;19;20022;-63
2023/04/08 07:38:46;;;;;;;0.00;0.00;;;;;;;10.42;62.35;101645.88;7352235;19;20458;-63
2023/04/08 07:41:11;;;;;;;0.00;0.00;;;;;;;10.45;64.44;101659.78;7352047;19;20019;-63
2023/04/08 07:43:37;;;;;;;0.00;0.00;;;;;;;10.50;64.28;101657.16;7354827;19;20455;-63
2023/04/08 07:46:04;;;;;;;0.10;0.10;;;;;;;10.55;63.67;101665.81;7352568;19;20838;-63
2023/04/08 07:48:30;;;;;;;0.00;0.00;;;;;;;10.58;63.90;101666.63;7353563;19;20025;-63
2023/04/08 07:50:56;;;;;;;0.00;0.00;;;;;;;10.63;64.59;101664.88;7350218;19;20121;-63
2023/04/08 07:53:25;;;;;;;0.00;0.00;;;;;;;10.59;64.03;101649.22;7352337;19;20010;-63
2023/04/08 07:55:51;;;;;;;0.00;0.00;;;;;;;10.73;64.38;101670.88;7346804;19;20853;-63
2023/04/08 07:58:16;;;;;;;0.00;0.00;;;;;;;10.78;64.18;101668.25;7344398;19;20014;-62
2023/04/08 08:00:42;;;;;;;0.00;0.00;;;;;;;10.86;63.82;101663.84;7347712;19;20094;-63
2023/04/08 08:03:08;;;;;;;0.03;0.03;;;;;;;10.83;63.06;101659.47;7352622;19;20018;-64
2023/04/08 08:05:35;;;;;;;0.00;0.00;;;;;;;11.00;63.72;101679.38;7352093;19;20649;-64
2023/04/08 08:08:00;;;;;;;0.00;0.00;;;;;;;11.07;62.72;101686.28;7326698;19;20072;-63
2023/04/08 08:10:26;;;;;;;0.00;0.00;;;;;;;11.11;63.13;101674.94;7349978;19;20102;-63
2023/04/08 08:12:51;;;;;;;0.10;0.10;;;;;;;11.20;63.52;101681.81;7348998;19;20026;-63
2023/04/08 08:15:17;;;;;;;0.00;0.00;;;;;;;11.26;63.49;101689.63;7348546;19;20081;-63
2023/04/08 08:17:42;;;;;;;0.00;0.00;;;;;;;11.35;63.85;101697.34;7354286;19;20736;-62
2023/04/08 08:20:09;;;;;;;0.00;0.00;;;;;;;11.37;63.63;101690.38;7337582;19;20089;-63
2023/04/08 08:22:34;;;;;;;0.00;0.00;;;;;;;11.51;63.72;101701.56;7344109;19;20043;-63
2023/04/08 08:25:00;;;;;;;0.10;0.10;;;;;;;11.61;62.81;101694.47;7351070;19;20115;-63
2023/04/08 08:27:25;;;;;;;0.00;0.00;;;;;;;11.68;63.01;101702.22;7350910;19;20911;-64
2023/04/08 08:29:51;;;;;;;0.00;0.00;;;;;;;11.78;62.93;101702.13;7347450;19;20525;-63
2023/04/08 08:32:17;;;;;;;0.00;0.00;;;;;;;11.85;62.50;101704.66;7351533;19;20006;-63
2023/04/08 08:34:42;;;;;;;0.00;0.00;;;;;;;11.90;62.48;101697.63;7348350;19;20007;-63
2023/04/08 08:37:08;;;;;;;0.10;0.10;;;;;;;11.99;62.21;101699.28;7353647;19;20014;-64
2023/04/08 08:39:33;;;;;;;0.00;0.00;;;;;;;12.06;62.20;101702.69;7357648;19;20393;-63
2023/04/08 08:41:59;;;;;;;0.03;0.03;;;;;;;12.13;62.47;101689.50;7359070;19;20015;-63
2023/04/08 08:44:25;;;;;;;0.00;0.00;;;;;;;12.22;62.19;101682.41;7351125;19;20010;-63
2023/04/08 08:46:52;;;;;;;0.00;0.00;;;;;;;12.34;62.46;101682.22;7354420;19;20109;-63
2023/04/08 08:49:17;;;;;;;0.00;0.00;;;;;;;12.38;62.45;101660.34;7354166;19;20056;-63
2023/04/08 08:51:46;;;;;;;0.10;0.10;;;;;;;12.68;62.46;101682.59;7357043;19;20828;-63
2023/04/08 08:54:11;;;;;;;0.00;0.00;;;;;;;12.88;62.58;101679.66;7355855;19;20024;-63
2023/04/08 08:56:37;;;;;;;0.00;0.00;;;;;;;13.07;61.78;101677.56;7356463;19;20015;-63
2023/04/08 08:59:02;;;;;;;0.00;0.00;;;;;;;13.33;61.59;101680.66;7325539;19;20530;-63
2023/04/08 09:01:32;;;;;;;0.10;0.10;;;;;;;13.61;61.70;101686.22;7354232;19;20123;-64
2023/04/08 09:04:15;;;;;;;0.10;0.10;;;;;;;13.93;61.53;101692.59;7352228;19;20014;-64
2023/04/08 09:06:41;;;;;;;0.10;0.10;;;;;;;14.01;59.67;101667.91;7357203;19;20743;-63
2023/04/08 09:09:10;;;;;;;0.10;0.10;;;;;;;14.33;59.12;101686.47;7360512;19;20117;-64
2023/04/08 09:11:37;;;;;;;0.10;0.10;;;;;;;14.61;59.41;101679.72;7358617;19;20494;-64
2023/04/08 09:14:03;;;;;;;;;;;;;;;14.93;60.37;101680.69;7361474;19;20009;-64
2023/04/08 09:16:29;;;;;;;0.00;0.00;;;;;;;14.99;57.09;101667.38;7357727;19;19919;-63
2023/04/08 09:19:08;;;;;;;0.10;0.10;;;;;;;15.20;57.04;101674.72;7356409;19;20553;-63
2023/04/08 09:21:34;;;;;;;0.10;0.10;;;;;;;15.19;55.99;101677.41;7354255;19;20753;-64
2023/04/08 09:23:59;;;;;;;0.00;0.00;;;;;;;15.16;55.61;101686.25;7354211;19;20018;-63
2023/04/08 09:26:26;;;;;;;0.10;0.10;;;;;;;15.06;55.86;101671.59;7358317;19;20014;-63
2023/04/08 09:29:08;;;;;;;0.10;0.10;;;;;;;15.11;56.44;101684.63;7354851;19;20031;-61
2023/04/08 09:31:41;;;;;;;0.00;0.00;;;;;;;15.03;56.32;101683.06;7358580;19;20070;-64
2023/04/08 09:34:18;;;;;;;0.00;0.00;;;;;;;15.00;56.34;101671.72;7356818;19;20017;-64
2023/04/08 09:36:44;;;;;;;0.00;0.00;;;;;;;14.97;56.92;101675.31;7357439;19;20720;-63
2023/04/08 09:39:10;;;;;;;0.10;0.10;;;;;;;15.02;56.71;101675.22;7359887;19;20953;-64
2023/04/08 09:41:37;;;;;;;0.10;0.10;;;;;;;14.78;56.56;101630.22;7350548;19;20103;-63
2023/04/08 09:44:08;;;;;;;0.10;0.10;;;;;;;15.12;57.07;101681.97;7352910;19;20027;-63
2023/04/08 09:46:48;;;;;;;0.10;0.10;;;;;;;15.20;56.86;101685.25;7357921;19;20030;-62
2023/04/08 09:49:37;;;;;;;0.10;0.10;;;;;;;15.27;56.64;101678.06;7356920;19;20046;-63
2023/04/08 09:52:05;;;;;;;0.00;0.00;;;;;;;15.34;56.57;101687.50;7353882;19;20013;-64
2023/04/08 09:55:01;;;;;;;0.10;0.10;;;;;;;15.52;56.59;101679.13;7354802;19;20055;-64
2023/04/08 09:57:51;;;;;;;0.00;0.00;;;;;;;15.78;56.28;101677.56;7249776;19;2004323;-63
2023/04/08 10:00:18;;;;;;;0.00;0.00;;;;;;;15.87;54.57;101673.81;7251633;19;2004712;-64
2023/04/08 10:03:21;;;;;;;0.05;0.05;;;;;;;16.10;55.23;101679.25;7353819;19;20018;-64
2023/04/08 10:05:48;;;;;;;0.10;0.10;;;;;;;16.24;53.33;101682.34;7249238;19;2004134;-63
2023/04/08 10:08:15;;;;;;;0.10;0.10;;;;;;;16.33;52.51;101674.16;7358331;19;20021;-63
2023/04/08 10:10:42;;;;;;;0.00;0.00;;;;;;;16.40;52.03;101676.59;7355393;19;20375;-63
2023/04/08 10:13:08;;;;;;;0.03;0.03;;;;;;;16.41;51.67;101678.31;7356491;19;20024;-64
2023/04/08 10:15:36;;;;;;;0.00;0.00;;;;;;;16.40;52.06;101666.91;7348924;19;20597;-63
2023/04/08 10:18:01;;;;;;;0.10;0.10;;;;;;;16.49;52.17;101668.38;7358766;19;20021;-63
2023/04/08 10:20:33;;;;;;;0.00;0.00;;;;;;;16.69;53.31;101679.16;7350227;19;20007;-63
2023/04/08 10:22:59;;;;;;;0.10;0.10;;;;;;;16.83;52.58;101676.97;7357684;19;20030;-63
2023/04/08 10:25:44;;;;;;;0.10;0.10;;;;;;;17.03;53.02;101663.09;7356816;19;20936;-62
2023/04/08 10:28:09;;;;;;;0.10;0.10;;;;;;;17.22;50.06;101679.16;7347173;19;20011;-63
2023/04/08 10:30:37;;;;;;;0.10;0.10;;;;;;;17.48;50.74;101670.31;7351499;19;21954;-63
2023/04/08 10:33:13;;;;;;;0.00;0.00;;;;;;;17.69;50.26;101673.97;7356320;19;20030;-62
2023/04/08 10:35:46;;;;;;;0.10;0.10;;;;;;;17.78;49.56;101649.88;7353538;19;20006;-62
2023/04/08 10:38:15;;;;;;;0.10;0.10;;;;;;;18.01;50.00;101659.56;7358733;19;20018;-62
2023/04/08 10:40:42;;;;;;;0.10;0.10;;;;;;;18.35;48.70;101661.78;7356401;19;20030;-63
2023/04/08 10:43:10;;;;;;;0.03;0.03;;;;;;;18.60;48.30;101663.41;7352312;19;20023;-63
2023/04/08 10:45:35;;;;;;;0.10;0.10;;;;;;;18.78;47.28;101656.53;7355270;19;20013;-63
2023/04/08 10:48:23;;;;;;;0.10;0.10;;;;;;;18.98;49.69;101642.47;7356856;19;20030;-63
2023/04/08 10:50:55;;;;;;;0.10;0.10;;;;;;;19.16;47.33;101649.63;7254939;19;2004590;-63
2023/04/08 10:53:31;;;;;;;0.10;0.10;;;;;;;19.33;48.49;101649.75;7342135;19;20052;-63
2023/04/08 10:56:06;;;;;;;0.10;0.10;;;;;;;19.53;47.23;101648.00;7351039;19;20632;-63
2023/04/08 10:58:32;;;;;;;0.10;0.10;;;;;;;19.65;45.24;101644.81;7353061;19;20014;-63
2023/04/08 11:01:06;;;;;;;0.00;0.00;;;;;;;19.96;47.16;101639.81;7353487;19;20586;-63
2023/04/08 11:03:35;;;;;;;0.10;0.10;;;;;;;20.12;45.74;101623.16;7350939;19;20056;-63
2023/04/08 11:06:01;;;;;;;0.10;0.10;;;;;;;20.36;44.49;101616.69;7356292;19;20014;-63
2023/04/08 11:08:31;;;;;;;0.10;0.10;;;;;;;20.78;44.92;101628.78;7355070;19;20014;-63
2023/04/08 11:11:00;;;;;;;0.10;0.10;;;;;;;20.91;42.92;101615.75;7346567;19;20074;-63
2023/04/08 11:13:27;;;;;;;0.10;0.10;;;;;;;21.24;42.77;101634.41;7348248;19;20553;-63
2023/04/08 11:15:54;;;;;;;0.10;0.10;;;;;;;21.42;42.50;101617.50;7355193;19;20062;-63
2023/04/08 11:18:20;;;;;;;0.10;0.10;;;;;;;21.75;40.81;101633.44;7359117;19;20470;-63
2023/04/08 11:20:49;;;;;;;0.10;0.10;;;;;;;21.94;41.05;101630.59;7352887;19;20122;-63
2023/04/08 11:23:14;;;;;;;0.00;0.00;;;;;;;22.13;41.07;101621.63;7357851;19;20022;-63
2023/04/08 11:25:41;;;;;;;0.10;0.10;;;;;;;22.29;40.37;101630.44;7356745;19;20039;-63
2023/04/08 11:28:07;;;;;;;0.10;0.10;;;;;;;22.50;39.63;101626.56;7353930;19;20038;-63